Aztec, NM (87410)

2:56 AM MDT on October 01, 2014 (GMT -0600)
Aztec, NM 87410 | Change Station
CLOSE
Current Station
Personal Weather Station
Location: Aztec, NM
Elevation: 5682 ft
Nearby Weather Stations

Elev 5682 ft 36.82 °N, 107.99 °W | Updated 4 minutes ago

Clear
Clear
45.0 °F
Feels Like 45 °F
N
2.2
Wind Variable Wind from NNE

Today
High -- | Low -- °F
--% Chance of Precip.
Yesterday
High -- | Low -- °F
Precip. -- in
7:07 AM 6:55 PM
Waxing Crescent, 45% visible
Pressure 29.86 in
Visibility 10.0 miles
Clouds Clear
Windchill 45 °F
Dew Point 38 °F
Humidity 75%
Rainfall 0.00 in
Snow Depth Not available.
UV 0 out of 12
Pollen 4.70 out of 12
Air Quality Not available.
Flu Activity Not available.
METAR KFMN 010753Z AUTO 07006KT 10SM CLR 08/05 A2995 RMK AO2 SLP110 T00830050

More Conditions Fewer Conditions

Pressure 29.86 in
Visibility 10.0 miles
Clouds Clear
Windchill 45 °F
Dew Point 38 °F
Humidity 75%
Rainfall 0.00 in
Snow Depth Not available.
UV 0 out of 12
Pollen 4.70 out of 12
Air Quality Not available.
Flu Activity Not available.
METAR KFMN 010753Z AUTO 07006KT 10SM CLR 08/05 A2995 RMK AO2 SLP110 T00830050

More Conditions Fewer Conditions

10-Day Weather Forecast

Almanac

Astronomy

Oct. 01, 2014 Rise Set
Actual Time 7:07 AM MDT 6:55 PM MDT
Civil Twilight 6:41 AM MDT 7:21 PM MDT
Nautical Twilight 6:11 AM MDT 7:51 PM MDT
Astronomical Twilight 5:41 AM MDT 8:21 PM MDT
Moon 2:04 PM MDT No Moon Set
Length of Visible Light 12h 39m
Length of Day
11h 47m
Tomorrow will be 2m 19s shorter.
Waxing Crescent, 45% of the Moon is Illuminated
Today
Waxing Crescent
Oct 1
First Quarter
Oct 8
Full
Oct 15
Last Quarter
Oct 23
New

Today's Extremes

State Highs State Lows

Community

WunderPhotos

Upload Photos

1,757,902 photos uploaded!

Nearby

Snow Depth

Station Depth Elevation
Signal Peak 1 in 8360 ft
Wesner Springs 3 in 11120 ft
Frisco Divide 0 in 8000 ft
Rice Park 0 in 8460 ft
Tolby 1 in 10180 ft

Earthquake Activity

City Distance Mag. Time & Date
No recent earthquake activity has been reported nearby.
Minimum magnitude displayed is 2.5.

Coastal Water Temperatures

Place Temperature
No Stations Reporting

Nearby Weather Stations